2022年5月27日

时间 代码 天气 温度 能见度 天花板 METAR/SPECI
1:55 下午
V
82 °F 6¼ mi+ - 150° 150° 5 kt METAR LIPI 271155Z 15005KT 9999 FEW035 28/15 Q1016
12:55 下午
V
82 °F 6¼ mi+ - 180° 180° 5 kt METAR LIPI 271055Z 18005KT 9999 FEW035 28/16 Q1017 RMK SCT VIS MIN 9999 WIND THR06 20003KT WIND THR24 18004KT BLU
11:55 上午
V
81 °F 6¼ mi+ - 140° 140° 4 kt METAR LIPI 270955Z 14004KT 9999 FEW035 27/16 Q1017
10:55 上午
V
79 °F 6¼ mi+ - 150° 150° 3 kt METAR LIPI 270855Z 15003KT CAVOK 26/17 Q1017
9:55 上午
V
77 °F 6¼ mi+ - 050° 050° 3 kt METAR LIPI 270755Z 05003KT CAVOK 25/16 Q1017 RMK FEW FEW200 VIS MIN 9999 WIND THR06 09003KT WIND THR24 10003KT BLU
8:55 上午
V
73 °F 6¼ mi+ - 350° 350° 5 kt METAR LIPI 270655Z 35005KT CAVOK 23/17 Q1018 RMK FEW FEW150 VIS MIN 9999 WIND THR06 03005KT WIND THR24 01004KT BLU
7:55 上午
V
70 °F 6¼ mi+ - 350° 350° 4 kt METAR LIPI 270555Z 35004KT CAVOK 21/16 Q1018 RMK FEW FEW200 VIS MIN 9999 WIND THR06 04004KT WIND THR24 01004KT BLU
6:55 上午
V
64 °F 6¼ mi+ - 350° 350° 3 kt METAR LIPI 270455Z 35003KT CAVOK 18/16 Q1018
5:55 上午
V
63 °F 6¼ mi+ - 360° 360° 3 kt METAR LIPI 270355Z 36003KT CAVOK 17/15 Q1018 RMK SKC VIS MIN 9999 WIND THR06 04005KT WIND THR24 01003KT BLU
4:55 上午
V
63 °F 6¼ mi+ - 340° 340° 5 kt METAR LIPI 270255Z 34005KT CAVOK 17/16 Q1018
3:55 上午
V
64 °F 6¼ mi+ - 340° 340° 3 kt METAR LIPI 270155Z 34003KT CAVOK 18/16 Q1019
2:55 上午
V
64 °F 6¼ mi+ - 350° 350° 5 kt METAR LIPI 270055Z 35005KT CAVOK 18/16 Q1019 RMK SKC VIS MIN 9999 WIND THR06 03003KT WIND THR24 35004KT BLU
1:55 上午
V
64 °F 6¼ mi+ - 360° 360° 5 kt METAR LIPI 262355Z 36005KT CAVOK 18/16 Q1019 RMK FEW FEW160 VIS MIN 9999 WIND THR06 04005KT WIND THR24 01004KT BLU
12:55 上午
V
66 °F 6¼ mi+ - 030° 030° 2 kt METAR LIPI 262255Z 03002KT CAVOK 19/17 Q1020

2022年5月26日

时间 代码 天气 温度 能见度 天花板 METAR/SPECI
11:55 下午
V
66 °F 6¼ mi+ - 350° 350° 4 kt METAR LIPI 262155Z 35004KT CAVOK 19/17 Q1020
10:55 下午
V
68 °F 6¼ mi+ - 040° 040° 2 kt METAR LIPI 262055Z 04002KT CAVOK 20/17 Q1020
9:55 下午
V
72 °F 6¼ mi+ - 130° 130° 2 kt METAR LIPI 261955Z 13002KT 9999 FEW100 22/18 Q1020
8:55 下午
V
75 °F 6¼ mi+ - 200° 200° 3 kt METAR LIPI 261855Z 20003KT CAVOK 24/17 Q1019 RMK SCT FEW130 SCT170 VIS MIN 9999 WIND THR06 24003KT WIND THR24 20003KT BLU
7:55 下午
V
77 °F 6¼ mi+ - 190° 190° 4 kt METAR LIPI 261755Z 19004KT CAVOK 25/16 Q1018 RMK SCT SCT130 SCT170 VIS MIN 9999 WIND THR06 22003KT WIND THR24 19004KT BLU
6:55 下午
V
79 °F 6¼ mi+ - 180° 180° 6 kt METAR LIPI 261655Z 18006KT CAVOK 26/16 Q1018 RMK BKN SCT130 SCT180 VIS MIN 9999 WIND THR06 21005KT WIND THR24 19006KT BLU
5:55 下午
V
79 °F 6¼ mi+ - 190° 190° 6 kt METAR LIPI 261555Z 19006KT 9999 SCT110 26/16 Q1019 RMK BKN SCT150 VIS MIN 9999 WIND THR06 19007KT WIND THR24 18005KT BLU
4:55 下午
V
82 °F 6¼ mi+ - 170° 170° 4 kt METAR LIPI 261455Z 17004KT 9999 FEW040 28/15 Q1019
3:55 下午
V
81 °F 6¼ mi+ - 130° 130° 5 kt METAR LIPI 261355Z 13005KT CAVOK 27/14 Q1019 RMK SCT SCT130 VIS MIN 9999 WIND THR06 18005KT WIND THR24 17003KT BLK BLU
2:55 下午
V
81 °F 6¼ mi+ - 100° 100° 4 kt METAR LIPI 261255Z 10004KT 9999 FEW040 27/14 Q1019 RMK BKN SCT120 VIS MIN 9999 WIND THR06 10005KT WIND THR24 18004KT BLK BLU
1:55 下午
V
79 °F 6¼ mi+ - 070° 070° 5 kt METAR LIPI 261155Z 07005KT 9999 FEW040 26/14 Q1020
12:55 下午
V
79 °F 6¼ mi+ - 050° 050° 5 kt METAR LIPI 261055Z 05005KT CAVOK 26/14 Q1020 RMK FEW FEW120 VIS MIN 9999 WIND THR06 10005KT WIND THR24 08004KT BLU
11:55 上午
V
77 °F 6¼ mi+ - 040° 040° 5 kt METAR LIPI 260955Z 04005KT 9999 FEW040 25/14 Q1020 RMK BKN BKN130 VIS MIN 9999 WIND THR06 13006KT WIND THR24 07005KT BLU
10:55 上午
V
75 °F 6¼ mi+ - 030° 030° 8 kt METAR LIPI 260855Z 03008KT 9999 SCT050 SCT070 24/13 Q1020
9:55 上午
V
75 °F 6¼ mi+ - 040° 040° 10 kt METAR LIPI 260755Z 04010KT 9999 FEW050 SCT070 24/13 Q1020 RMK SCT VIS MIN 9999 WIND THR06 07010KT WIND THR24 05008KT BLU
8:55 上午
V
72 °F 6¼ mi+ - 020° 020° 7 kt METAR LIPI 260655Z 02007KT 9999 SCT060 SCT080 22/14 Q1020 RMK BKN VIS MIN 9999 WIND THR06 06009KT WIND THR24 04009KT BLU
7:55 上午
V
68 °F 6¼ mi+ - 030° 030° 9 kt METAR LIPI 260555Z 03009KT 9999 FEW050 SCT080 20/14 Q1019
6:55 上午
V
64 °F 6¼ mi+ - 050° 050° 8 kt METAR LIPI 260455Z 05008KT 9999 SCT050 SCT100 18/14 Q1019
5:55 上午
V
63 °F 6¼ mi+ - 350° 350° 5 kt METAR LIPI 260355Z 35005KT CAVOK 17/16 Q1018 RMK SCT SCT150 VIS MIN 9999 WIND THR06 /////KT WIND THR24 03006KT BLU
4:55 上午
V
64 °F 6¼ mi+ - 340° 340° 4 kt METAR LIPI 260255Z 34004KT 9999 FEW050 18/16 Q1018 RMK FEW VIS MIN 9999 WIND THR06 /////KT WIND THR24 35003KT BLU
3:55 上午
V
63 °F 6¼ mi+ - 360° 360° 5 kt METAR LIPI 260155Z 36005KT CAVOK 17/15 Q1018
2:55 上午
V
64 °F 6¼ mi+ - 350° 350° 5 kt METAR LIPI 260055Z 35005KT 9999 FEW100 18/16 Q1018 RMK FEW VIS MIN 9999 WIND THR06 /////KT IND THR24 36005KT BLU
1:55 上午
V
66 °F 6¼ mi+ - 350° 350° 3 kt METAR LIPI 252355Z 35003KT 9999 FEW060 19/17 Q1018
12:55 上午
V
64 °F 6¼ mi+ - 030° 030° 3 kt METAR LIPI 252255Z 03003KT 9999 FEW060 18/17 Q1017 RMK SCT VIS MIN 9999 WIND THR06 /////KT WIND THR24 04004KT BLU

2022年5月25日

时间 代码 天气 温度 能见度 天花板 METAR/SPECI
11:55 下午
V
66 °F 6¼ mi+ - 080° 080° 3 kt METAR LIPI 252155Z 08003KT 9999 FEW025 19/17 Q1017 RMK BKN SCT140 VIS MIN 9999 WIND THR06 //////KT WIND THR24 09002KT BLU
10:55 下午
V
66 °F 6¼ mi+ - 020° 020° 4 kt METAR LIPI 252055Z 02004KT 9999 TS FEW025CB SCT040 19/17 Q1015 RMK BKN VIS MIN 9999 WIND THR06 04005KT WIND THR24 04004KT BLU
9:55 下午
V
68 °F 6¼ mi+ - 350° 350° 4 kt METAR LIPI 251955Z 35004KT 9999 FEW080 20/17 Q1015
8:55 下午
V
68 °F 6¼ mi+ - 010° 010° 3 kt METAR LIPI 251855Z 01003KT 9999 FEW083 20/17 Q1014
7:55 下午
V
72 °F 6¼ mi+ - 350° 350° 4 kt METAR LIPI 251755Z 35004KT 9999 FEW030 22/18 Q1014
6:55 下午
V
77 °F 6¼ mi+ - 140° 140° 6 kt METAR LIPI 251655Z 14006KT 9999 FEW030 25/17 Q1013 RMK SCT SCT160 VIS MIN 9999 WIND THR06 18007KT WIND THR24 16005KT BLU
5:55 下午
V
77 °F 6¼ mi+ - 150° 150° 7 kt METAR LIPI 251555Z 15007KT 9999 FEW030 25/17 Q1013
4:55 下午
V
79 °F 6¼ mi+ - 160° 160° 8 kt METAR LIPI 251455Z 16008KT 9999 -RA FEW035CB SCT040 26/18 Q1012 RMK BKN VIS MIN 9999 WIND THR06 18011KT WIND THR24 16008KT BLU
3:55 下午
V
79 °F 6¼ mi+ - 160° 160° 7 kt METAR LIPI 251355Z 16007KT 9999 FEW035 26/18 Q1012 RMK BKN SCT160 VIS MIN 9999 WIND THR06 19005KT WIND THR24 21008KT BLU
2:55 下午
V
79 °F 6¼ mi+ - 160° 160° 6 kt METAR LIPI 251255Z 16006KT 9999 SCT030 SCT070 26/17 Q1012 RMK BKN VIS MIN 9999 WIND THR06 21007KT WIND THR24 18008KT BLU
较旧的数据

下载我们的应用程序

在您的手机和平板电脑上轻松访问所有航空天气。
有许多网站上没有的功能,如离线支持和个人机场列表。

Studio Eveline

Benalmádena
España

我们和第三方通过cookies跟踪您在我们网站上的上网行为。如果您继续,我们认为您同意我们的cookie政策。 了解更多